Brookfield, VT (05036)

7:39 AM EDT on April 19, 2015 (GMT -0400)
Norwich University -CISBE | | Change Station
CLOSE
Current Station
Personal Weather Station
Location: Northfield, VT
Elevation: 817 ft
Nearby Weather Stations

Elev 817 ft 44.14 °N, 72.66 °W | Updated 18 seconds ago

Overcast
Overcast
39.0 °F
Feels Like 35 °F
N
5.0
Wind Variable Wind from NNW
Gusts 14.0 mph

Today
High -- | Low -- °F
--% Chance of Precip.
Yesterday
High -- | Low -- °F
Precip. -- in
6:00 AM 7:38 PM
New Moon, 1% visible
Pressure 30.31 in
Visibility 10.0 miles
Clouds Overcast 3300 ft
Windchill 35 °F
Dew Point 34 °F
Humidity 81%
Rainfall 0.00 in
Snow Depth Not available.
UV 0 out of 12
Pollen 10.20 out of 12
Air Quality Not available.
Flu Activity Regional
METAR KMPV 191051Z AUTO 01008KT 10SM OVC033 03/M02 A3028 RMK AO2 SLP264 T00281017

More Conditions Fewer Conditions

Pressure 30.31 in
Visibility 10.0 miles
Clouds Overcast 3300 ft
Windchill 35 °F
Dew Point 34 °F
Humidity 81%
Rainfall 0.00 in
Snow Depth Not available.
UV 0 out of 12
Pollen 10.20 out of 12
Air Quality Not available.
Flu Activity Regional
METAR KMPV 191051Z AUTO 01008KT 10SM OVC033 03/M02 A3028 RMK AO2 SLP264 T00281017

More Conditions Fewer Conditions

10-Day Weather Forecast

Almanac

Astronomy

Apr. 19, 2015 Rise Set
Actual Time
Civil Twilight
Nautical Twilight
Astronomical Twilight
Moon
Length of Visible Light
Length of Day
Tomorrow will be .
, % of the Moon is Illuminated

Today's Extremes

State Highs State Lows

Community

WunderPhotos

Upload Photos

1,814,758 photos uploaded!

WunderBlogs® & News

Nearby

Air Quality

  Air Quality AQ Index Pollutant
Not available.

Snow Depth

Station Depth Elevation

Earthquake Activity

City Distance Mag. Time & Date
Minimum magnitude displayed is 2.5.

Coastal Water Temperatures

Place Temperature

Stations

Nearby Weather Stations

Station Location Temp. Windchill Dew Point Humidity Wind Precip. Elev Updated Type